Time;durP1;ratioP1;P1;durP2;ratioP2;P2;SDS_P1;SDS_P2;PMS_P1;PMS_P2;Temp;Humidity;BMP_temperature;BMP_pressure;BME280_temperature;BME280_humidity;BME280_pressure;Samples;Min_cycle;Max_cycle;Signal;HPM_P1;HPM_P2
2021/06/15 00:00:18;;;;;;;6.65;3.63;;;16.30;82.70;;;;;;5048838;28;20501;-53
2021/06/15 00:02:44;;;;;;;8.98;4.13;;;16.30;82.60;;;;;;5047144;28;20036;-52
2021/06/15 00:05:11;;;;;;;6.80;3.38;;;16.30;82.60;;;;;;5067197;28;20048;-53
2021/06/15 00:07:38;;;;;;;11.10;4.47;;;16.30;82.60;;;;;;5051517;28;20130;-52
2021/06/15 00:10:11;;;;;;;7.43;3.25;;;16.20;82.50;;;;;;5047053;28;20041;-53
2021/06/15 00:12:38;;;;;;;10.85;3.63;;;16.20;82.80;;;;;;5046062;28;20111;-54
2021/06/15 00:15:07;;;;;;;7.15;3.40;;;16.10;82.90;;;;;;5051718;28;20402;-54
2021/06/15 00:17:33;;;;;;;7.38;3.25;;;16.10;83.30;;;;;;5041559;28;20043;-55
2021/06/15 00:20:00;;;;;;;7.45;3.47;;;16.00;83.70;;;;;;5047157;28;20040;-54
2021/06/15 00:22:27;;;;;;;8.48;3.50;;;16.00;83.10;;;;;;5048074;28;20466;-51
2021/06/15 00:25:10;;;;;;;11.27;3.78;;;15.90;83.20;;;;;;5048381;28;20041;-53
2021/06/15 00:27:37;;;;;;;9.15;3.30;;;15.90;83.20;;;;;;5049278;28;20386;-54
2021/06/15 00:30:06;;;;;;;7.95;3.00;;;15.90;83.20;;;;;;5047394;28;20233;-54
2021/06/15 00:32:38;;;;;;;8.23;3.30;;;15.80;83.10;;;;;;5049847;28;20040;-54
2021/06/15 00:35:19;;;;;;;7.97;2.88;;;15.80;83.10;;;;;;5051080;28;20474;-51
2021/06/15 00:37:45;;;;;;;10.60;3.40;;;15.80;83.10;;;;;;5065946;28;20083;-54
2021/06/15 00:40:11;;;;;;;8.15;3.00;;;15.70;83.10;;;;;;5053928;28;20056;-54
2021/06/15 00:42:38;;;;;;;10.45;3.00;;;15.70;83.20;;;;;;5048670;28;20040;-53
2021/06/15 00:45:12;;;;;;;9.95;3.17;;;15.70;83.20;;;;;;5056846;28;20041;-51
2021/06/15 00:47:38;;;;;;;8.30;3.10;;;15.70;83.00;;;;;;5065437;28;20098;-51
2021/06/15 00:50:05;;;;;;;7.70;2.83;;;15.60;83.30;;;;;;5048896;28;20063;-54
2021/06/15 00:52:32;;;;;;;6.57;3.03;;;15.60;83.50;;;;;;5055042;28;20059;-54
2021/06/15 00:54:59;;;;;;;6.75;2.67;;;15.40;83.60;;;;;;5032448;28;20403;-53
2021/06/15 00:57:27;;;;;;;9.48;3.17;;;15.50;83.70;;;;;;5048107;28;20049;-53
2021/06/15 00:59:55;;;;;;;9.25;2.60;;;15.50;83.60;;;;;;5048985;28;20497;-54
2021/06/15 01:02:22;;;;;;;8.93;2.78;;;15.50;83.70;;;;;;5046959;28;20096;-53
2021/06/15 01:04:47;;;;;;;9.68;2.80;;;15.60;83.10;;;;;;5044809;28;20044;-54
2021/06/15 01:07:29;;;;;;;9.35;2.95;;;15.50;83.30;;;;;;5051113;28;20049;-54
2021/06/15 01:10:29;;;;;;;8.57;2.90;;;15.50;83.40;;;;;;5035271;28;20049;-54
2021/06/15 01:13:29;;;;;;;10.63;2.97;;;15.50;82.70;;;;;;5040377;28;20127;-53
2021/06/15 01:16:17;;;;;;;7.30;2.65;;;15.50;82.70;;;;;;5052640;28;20045;-53
2021/06/15 01:18:50;;;;;;;6.72;2.95;;;15.40;83.10;;;;;;5051956;28;20045;-52
2021/06/15 01:21:18;;;;;;;10.33;3.10;;;15.30;83.60;;;;;;5049424;28;20040;-54
2021/06/15 01:23:50;;;;;;;8.93;2.70;;;15.20;83.60;;;;;;5051519;28;20291;-53
2021/06/15 01:26:35;;;;;;;;;;;15.10;84.00;;;;;;5054957;28;20041;-53
2021/06/15 01:29:12;;;;;;;8.43;2.88;;;15.20;84.10;;;;;;5057918;28;19920;-53
2021/06/15 01:31:55;;;;;;;6.55;2.67;;;15.10;84.10;;;;;;5053643;28;20477;-53
2021/06/15 01:34:21;;;;;;;;;;;15.10;84.10;;;;;;5070107;28;20045;-54
2021/06/15 01:36:59;;;;;;;8.05;2.97;;;15.10;84.00;;;;;;5052588;28;20206;-54
2021/06/15 01:39:28;;;;;;;9.10;2.75;;;15.10;84.50;;;;;;5043893;28;20051;-53
2021/06/15 01:42:05;;;;;;;7.65;2.40;;;15.00;84.40;;;;;;5046006;28;20041;-54
2021/06/15 01:44:34;;;;;;;8.50;2.67;;;15.00;84.60;;;;;;5049005;28;20073;-54
2021/06/15 01:47:11;;;;;;;7.60;2.95;;;15.00;84.60;;;;;;5044346;28;20064;-55
2021/06/15 01:49:53;;;;;;;8.40;2.67;;;15.00;84.80;;;;;;5049439;28;20581;-53
2021/06/15 01:52:24;;;;;;;7.43;2.70;;;14.90;85.00;;;;;;5047429;28;20214;-53
2021/06/15 01:54:52;;;;;;;8.40;2.70;;;14.90;85.20;;;;;;5021784;28;20053;-54
2021/06/15 01:57:19;;;;;;;9.00;3.08;;;14.80;85.30;;;;;;5052940;28;20040;-54
2021/06/15 01:59:46;;;;;;;8.88;2.70;;;14.80;85.50;;;;;;5054583;28;20048;-53
2021/06/15 02:02:14;;;;;;;7.40;2.22;;;14.80;85.50;;;;;;5053359;28;20039;-52
2021/06/15 02:04:53;;;;;;;10.13;3.00;;;14.70;85.60;;;;;;5051347;28;20091;-53
2021/06/15 02:07:23;;;;;;;;;;;14.70;85.80;;;;;;5061668;28;20044;-55
2021/06/15 02:09:53;;;;;;;8.10;2.55;;;14.60;85.50;;;;;;5050559;28;19939;-55
2021/06/15 02:12:23;;;;;;;10.35;2.80;;;14.60;86.00;;;;;;5051874;28;20033;-54
2021/06/15 02:15:13;;;;;;;8.80;3.10;;;14.60;86.00;;;;;;5051572;28;20061;-55
2021/06/15 02:17:43;;;;;;;10.85;2.80;;;14.60;86.00;;;;;;5051308;28;20040;-54
2021/06/15 02:20:20;;;;;;;10.35;2.67;;;14.50;86.00;;;;;;5041638;28;20073;-55
2021/06/15 02:22:54;;;;;;;7.97;2.80;;;14.50;86.20;;;;;;5057810;28;20103;-54
2021/06/15 02:25:42;;;;;;;9.55;2.42;;;14.60;86.30;;;;;;5054471;28;20063;-53
2021/06/15 02:28:28;;;;;;;8.90;2.53;;;14.50;86.10;;;;;;5035978;28;20486;-55
2021/06/15 02:30:55;;;;;;;9.48;2.40;;;14.50;86.10;;;;;;5051733;28;20067;-54
2021/06/15 02:33:33;;;;;;;9.75;2.50;;;14.50;85.90;;;;;;5050269;28;20520;-53
2021/06/15 02:36:08;;;;;;;8.40;2.25;;;14.50;86.50;;;;;;5051860;28;20049;-54
2021/06/15 02:38:48;;;;;;;7.60;2.30;;;14.50;86.60;;;;;;5050045;28;20083;-53
2021/06/15 02:41:18;;;;;;;8.70;2.72;;;14.50;86.50;;;;;;5024808;28;20056;-53
2021/06/15 02:43:45;;;;;;;7.65;2.58;;;14.40;86.60;;;;;;5051213;28;20112;-55
2021/06/15 02:46:16;;;;;;;9.93;2.58;;;14.40;86.70;;;;;;5051580;28;20201;-55
2021/06/15 02:48:51;;;;;;;9.32;2.33;;;14.40;86.70;;;;;;5051777;28;20060;-54
2021/06/15 02:51:19;;;;;;;9.32;2.67;;;14.40;86.70;;;;;;5042470;28;20048;-55
2021/06/15 02:53:59;;;;;;;8.18;2.40;;;14.30;86.50;;;;;;5052313;28;20072;-54
2021/06/15 02:56:29;;;;;;;10.68;2.70;;;14.30;86.70;;;;;;5051849;28;20041;-51
2021/06/15 02:58:55;;;;;;;7.05;2.22;;;14.30;86.90;;;;;;5059420;28;20075;-55
2021/06/15 03:01:21;;;;;;;10.13;2.67;;;14.30;86.90;;;;;;5056292;28;20064;-55
2021/06/15 03:03:46;;;;;;;12.57;2.80;;;14.30;86.90;;;;;;5046765;28;20042;-52
2021/06/15 03:06:12;;;;;;;9.65;2.53;;;14.30;86.90;;;;;;5061039;28;20040;-52
2021/06/15 03:08:39;;;;;;;11.60;3.20;;;14.30;87.00;;;;;;5048739;28;20394;-52
2021/06/15 03:11:08;;;;;;;11.48;2.70;;;14.20;87.10;;;;;;5052392;28;20032;-51
2021/06/15 03:13:44;;;;;;;11.77;2.63;;;14.20;87.20;;;;;;5050343;28;20049;-51
2021/06/15 03:16:16;;;;;;;6.57;2.10;;;14.20;87.30;;;;;;5052090;28;20037;-50
2021/06/15 03:19:07;;;;;;;9.07;2.13;;;14.20;87.30;;;;;;5052949;28;20041;-52
2021/06/15 03:21:42;;;;;;;10.20;2.60;;;14.20;87.40;;;;;;5046854;28;20292;-51
2021/06/15 03:24:17;;;;;;;11.18;2.60;;;14.20;87.40;;;;;;5055796;28;20037;-54
2021/06/15 03:27:06;;;;;;;8.80;2.42;;;14.20;87.30;;;;;;5051318;28;20452;-54
2021/06/15 03:29:51;;;;;;;10.65;2.10;;;14.10;87.50;;;;;;5038564;28;20053;-51
2021/06/15 03:33:04;;;;;;;9.00;2.60;;;14.10;87.40;;;;;;5039088;28;20048;-52
2021/06/15 03:35:32;;;;;;;14.18;2.97;;;14.10;87.90;;;;;;5061694;28;20042;-50
2021/06/15 03:38:04;;;;;;;12.27;2.70;;;14.10;87.40;;;;;;5042213;28;20033;-51
2021/06/15 03:40:41;;;;;;;9.75;2.53;;;14.10;87.60;;;;;;5047442;28;20037;-51
2021/06/15 03:43:11;;;;;;;13.75;2.60;;;14.10;87.90;;;;;;5039622;28;20482;-53
2021/06/15 03:45:42;;;;;;;14.68;2.70;;;14.20;87.90;;;;;;5047899;28;20409;-53
2021/06/15 03:48:11;;;;;;;8.68;2.45;;;14.20;87.40;;;;;;5050916;28;20029;-53
2021/06/15 03:50:38;;;;;;;10.20;2.83;;;14.20;87.50;;;;;;5048510;28;20053;-52
2021/06/15 03:53:08;;;;;;;11.45;2.88;;;14.10;87.50;;;;;;5050930;28;20070;-52
2021/06/15 03:55:37;;;;;;;8.15;2.10;;;14.20;87.70;;;;;;5036726;28;20599;-51
2021/06/15 03:58:06;;;;;;;8.73;2.15;;;14.20;87.70;;;;;;5051312;28;20036;-54
2021/06/15 04:00:33;;;;;;;9.32;2.65;;;14.20;87.70;;;;;;5052310;28;20052;-51
2021/06/15 04:03:03;;;;;;;10.02;2.40;;;14.20;87.90;;;;;;5064404;28;20037;-53
2021/06/15 04:05:30;;;;;;;11.35;2.33;;;14.20;87.80;;;;;;5054213;28;20033;-55
2021/06/15 04:08:00;;;;;;;13.27;2.60;;;14.20;88.00;;;;;;5053355;28;20121;-51
2021/06/15 04:10:27;;;;;;;10.23;2.50;;;14.30;88.10;;;;;;5052077;28;20095;-55
2021/06/15 04:12:57;;;;;;;9.18;2.13;;;14.30;88.00;;;;;;5059682;28;20132;-54
2021/06/15 04:15:26;;;;;;;11.35;2.60;;;14.30;88.20;;;;;;5053176;28;20079;-54
2021/06/15 04:17:57;;;;;;;10.45;2.42;;;14.30;88.00;;;;;;5037468;28;20053;-54
2021/06/15 04:20:29;;;;;;;11.88;2.50;;;14.30;88.40;;;;;;5052448;28;20037;-53
2021/06/15 04:22:56;;;;;;;12.40;2.47;;;14.30;87.70;;;;;;5050567;28;20460;-51
2021/06/15 04:25:29;;;;;;;14.50;2.80;;;14.30;87.70;;;;;;5052461;28;20071;-53
2021/06/15 04:27:56;;;;;;;15.93;3.00;;;14.40;87.90;;;;;;5065631;28;20044;-51
2021/06/15 04:30:24;;;;;;;13.35;2.30;;;14.40;87.80;;;;;;5035938;28;20080;-53
2021/06/15 04:32:57;;;;;;;14.07;2.60;;;14.40;87.70;;;;;;5043169;28;20060;-50
2021/06/15 04:35:32;;;;;;;10.88;2.55;;;14.40;87.60;;;;;;5084083;28;20139;-50
2021/06/15 04:38:29;;;;;;;14.05;2.35;;;14.50;87.80;;;;;;5058503;28;20151;-54
2021/06/15 04:41:02;;;;;;;12.88;2.83;;;14.50;87.70;;;;;;5072872;28;20076;-50
2021/06/15 04:43:50;;;;;;;9.77;2.45;;;14.50;87.50;;;;;;5052538;28;20049;-53
2021/06/15 04:46:26;;;;;;;10.38;2.53;;;14.50;87.70;;;;;;5047558;28;20460;-51
2021/06/15 04:49:09;;;;;;;11.70;2.70;;;14.50;87.60;;;;;;5059916;28;20041;-53
2021/06/15 04:51:37;;;;;;;10.50;2.22;;;14.60;87.40;;;;;;5052848;28;20425;-53
2021/06/15 04:54:04;;;;;;;16.98;2.58;;;14.60;87.40;;;;;;5054201;28;20044;-51
2021/06/15 04:56:30;;;;;;;14.40;2.55;;;14.60;87.20;;;;;;5058147;28;20041;-53
2021/06/15 04:59:01;;;;;;;14.10;2.58;;;14.60;86.90;;;;;;5038053;28;20045;-52
2021/06/15 05:01:29;;;;;;;9.45;2.15;;;14.60;86.70;;;;;;5047018;28;20044;-55
2021/06/15 05:04:05;;;;;;;12.57;2.70;;;14.70;86.60;;;;;;5055000;28;20056;-53
2021/06/15 05:06:41;;;;;;;11.00;2.42;;;14.60;86.40;;;;;;5053610;28;20056;-52
2021/06/15 05:09:09;;;;;;;11.18;2.40;;;14.70;86.40;;;;;;5050827;28;20044;-54
2021/06/15 05:11:36;;;;;;;14.93;2.80;;;14.70;86.60;;;;;;5046591;28;20056;-52
2021/06/15 05:14:26;;;;;;;13.07;2.70;;;14.70;86.30;;;;;;5041568;28;20632;-56
2021/06/15 05:16:53;;;;;;;14.80;2.78;;;14.70;86.40;;;;;;5044017;28;20460;-54
2021/06/15 05:19:19;;;;;;;12.85;2.45;;;14.80;86.40;;;;;;5052357;28;20048;-55
2021/06/15 05:22:07;;;;;;;7.95;2.25;;;14.80;85.80;;;;;;5054601;28;20043;-53
2021/06/15 05:24:50;;;;;;;13.85;2.35;;;14.80;85.60;;;;;;5065619;28;20144;-53
2021/06/15 05:27:19;;;;;;;12.25;2.60;;;14.90;85.60;;;;;;5038956;28;20045;-53
2021/06/15 05:29:45;;;;;;;14.70;2.63;;;14.90;85.20;;;;;;5056655;28;20040;-53
2021/06/15 05:32:11;;;;;;;14.68;2.40;;;14.90;85.20;;;;;;5061109;28;20063;-53
2021/06/15 05:34:38;;;;;;;13.75;2.53;;;15.00;84.70;;;;;;5046267;28;20041;-54
2021/06/15 05:37:05;;;;;;;14.48;2.60;;;15.00;84.80;;;;;;5053466;28;20095;-52
2021/06/15 05:39:33;;;;;;;14.85;3.30;;;15.00;84.80;;;;;;5044715;28;20460;-54
2021/06/15 05:41:58;;;;;;;13.52;2.58;;;15.10;84.10;;;;;;5047824;28;20052;-54
2021/06/15 05:44:24;;;;;;;11.98;2.30;;;15.00;84.40;;;;;;5040716;28;20041;-52
2021/06/15 05:46:50;;;;;;;14.77;2.40;;;15.30;83.20;;;;;;5051271;28;20036;-54
2021/06/15 05:49:16;;;;;;;14.55;2.85;;;15.20;83.60;;;;;;5053365;28;20037;-54
2021/06/15 05:51:41;;;;;;;14.57;2.72;;;15.10;84.00;;;;;;5054827;28;20044;-54
2021/06/15 05:54:07;;;;;;;11.63;2.55;;;15.20;84.20;;;;;;5055379;28;20091;-54
2021/06/15 05:56:34;;;;;;;9.63;2.30;;;15.20;83.60;;;;;;5051655;28;20103;-54
2021/06/15 05:59:00;;;;;;;14.00;2.35;;;15.10;83.80;;;;;;5053146;28;20040;-54
2021/06/15 06:01:26;;;;;;;10.75;2.40;;;15.30;84.30;;;;;;5053213;28;20136;-55
2021/06/15 06:04:02;;;;;;;15.88;2.75;;;15.40;82.50;;;;;;5052873;28;20044;-55
2021/06/15 06:09:13;;;;;;;12.50;2.50;;;15.30;83.40;;;;;;5066560;28;20052;-53
2021/06/15 06:11:42;;;;;;;12.93;2.50;;;15.30;83.80;;;;;;5053939;28;20111;-53
2021/06/15 06:14:08;;;;;;;12.00;2.53;;;15.30;83.80;;;;;;5045095;28;20033;-55
2021/06/15 06:16:35;;;;;;;10.07;2.50;;;15.40;83.60;;;;;;5060611;28;20044;-56
2021/06/15 06:19:03;;;;;;;13.25;2.58;;;15.40;83.10;;;;;;5061216;28;20446;-55
2021/06/15 06:21:33;;;;;;;12.88;2.33;;;15.70;82.10;;;;;;5052822;28;20065;-55
2021/06/15 06:24:01;;;;;;;10.77;2.30;;;15.70;80.60;;;;;;5054375;28;20067;-55
2021/06/15 06:26:27;;;;;;;11.38;2.40;;;15.90;79.50;;;;;;5055129;28;20041;-55
2021/06/15 06:28:53;;;;;;;18.45;2.55;;;15.90;80.00;;;;;;5050990;28;20037;-54
2021/06/15 06:31:19;;;;;;;11.65;2.67;;;16.00;77.80;;;;;;5053147;28;20044;-55
2021/06/15 06:33:46;;;;;;;10.68;2.35;;;16.00;77.00;;;;;;5046456;28;20144;-54
2021/06/15 06:36:12;;;;;;;10.32;2.22;;;15.90;78.00;;;;;;5032731;28;20128;-52
2021/06/15 06:38:38;;;;;;;8.93;2.17;;;16.10;75.40;;;;;;5068014;28;20099;-52
2021/06/15 06:41:04;;;;;;;10.38;2.20;;;16.00;76.10;;;;;;5047915;28;20069;-54
2021/06/15 06:43:30;;;;;;;11.80;2.42;;;16.00;76.50;;;;;;5046315;28;20080;-54
2021/06/15 06:45:57;;;;;;;12.35;2.58;;;16.20;72.90;;;;;;5033091;28;20410;-52
2021/06/15 06:48:23;;;;;;;10.75;2.13;;;16.30;73.10;;;;;;5049275;28;20102;-52
2021/06/15 06:50:49;;;;;;;12.88;2.67;;;16.40;71.50;;;;;;5053221;28;20158;-56
2021/06/15 06:53:16;;;;;;;10.25;2.63;;;16.30;73.50;;;;;;5052350;28;20044;-55
2021/06/15 06:55:41;;;;;;;10.55;2.78;;;16.40;72.00;;;;;;5053377;28;20052;-53
2021/06/15 06:58:07;;;;;;;10.13;2.70;;;16.40;73.10;;;;;;5048288;28;20068;-54
2021/06/15 07:00:34;;;;;;;16.48;2.50;;;16.40;72.80;;;;;;5045401;28;20410;-53
2021/06/15 07:03:04;;;;;;;12.38;2.28;;;16.40;73.00;;;;;;5051208;28;20469;-53
2021/06/15 07:05:30;;;;;;;13.15;2.33;;;16.50;73.40;;;;;;5043960;28;20414;-53
2021/06/15 07:07:58;;;;;;;10.60;2.50;;;16.60;73.10;;;;;;5052320;28;20493;-53
2021/06/15 07:10:24;;;;;;;8.88;2.15;;;16.80;68.90;;;;;;5042973;28;20060;-55
2021/06/15 07:12:50;;;;;;;12.82;2.50;;;16.80;70.00;;;;;;5054917;28;20040;-55
2021/06/15 07:15:19;;;;;;;15.02;2.55;;;16.90;70.50;;;;;;5055407;28;20056;-54
2021/06/15 07:17:45;;;;;;;13.32;2.35;;;17.10;68.20;;;;;;5058097;28;20093;-50
2021/06/15 07:20:11;;;;;;;11.05;2.08;;;17.20;67.50;;;;;;5067190;28;20280;-53
2021/06/15 07:22:40;;;;;;;10.73;2.20;;;17.20;67.10;;;;;;5059501;28;20053;-52
2021/06/15 07:25:07;;;;;;;11.10;2.35;;;17.30;66.30;;;;;;5068681;28;20650;-53
2021/06/15 07:27:53;;;;;;;9.75;2.10;;;17.40;67.70;;;;;;5056880;28;20069;-52
2021/06/15 07:30:19;;;;;;;14.40;2.45;;;17.50;67.20;;;;;;5084934;28;20563;-54
2021/06/15 07:33:06;;;;;;;9.35;2.10;;;17.70;66.50;;;;;;5062089;28;20578;-53
2021/06/15 07:35:51;;;;;;;7.90;2.42;;;17.80;63.70;;;;;;5069802;28;20044;-55
2021/06/15 07:38:37;;;;;;;9.05;2.38;;;17.90;63.30;;;;;;5067367;28;20037;-55
2021/06/15 07:41:03;;;;;;;13.63;2.47;;;18.00;60.00;;;;;;5067668;28;20039;-52
2021/06/15 07:43:31;;;;;;;10.43;2.20;;;17.90;62.10;;;;;;5069063;28;20097;-51
2021/06/15 07:46:16;;;;;;;11.75;2.25;;;17.90;62.90;;;;;;5037710;28;20106;-53
2021/06/15 07:49:03;;;;;;;10.18;2.15;;;17.90;63.40;;;;;;5036819;28;20044;-54
2021/06/15 07:51:34;;;;;;;8.43;1.83;;;18.00;64.50;;;;;;5063684;28;20047;-54
2021/06/15 07:54:20;;;;;;;9.25;2.30;;;18.10;63.50;;;;;;5060809;28;20052;-55
2021/06/15 07:57:06;;;;;;;11.70;2.45;;;18.10;64.30;;;;;;5067609;28;20036;-51
2021/06/15 07:59:32;;;;;;;10.43;2.42;;;18.20;62.10;;;;;;5071056;28;20036;-54
2021/06/15 08:02:17;;;;;;;9.32;2.28;;;18.30;64.50;;;;;;5063822;28;20102;-54
2021/06/15 08:04:44;;;;;;;10.95;2.30;;;18.40;63.20;;;;;;5067259;28;20044;-53
2021/06/15 08:07:18;;;;;;;12.02;2.25;;;18.50;62.20;;;;;;5059754;28;20033;-54
2021/06/15 08:09:44;;;;;;;12.60;2.40;;;18.70;63.40;;;;;;5051630;28;20045;-55
2021/06/15 08:12:12;;;;;;;9.00;2.35;;;18.80;60.00;;;;;;5042370;28;20108;-51
2021/06/15 08:14:57;;;;;;;11.20;2.58;;;18.80;61.50;;;;;;5036198;28;20045;-51
2021/06/15 08:17:43;;;;;;;11.43;3.15;;;18.90;61.30;;;;;;5039645;28;20150;-54
2021/06/15 08:20:10;;;;;;;10.65;2.50;;;19.00;59.90;;;;;;5031688;28;20560;-55
2021/06/15 08:22:36;;;;;;;13.80;2.35;;;18.90;60.50;;;;;;5039970;28;20494;-55
2021/06/15 08:25:22;;;;;;;11.93;2.70;;;18.90;60.80;;;;;;5035470;28;20081;-55
2021/06/15 08:27:48;;;;;;;11.60;2.10;;;19.00;59.50;;;;;;5044054;28;20036;-53
2021/06/15 08:30:36;;;;;;;11.50;2.47;;;19.00;58.30;;;;;;5035468;28;20056;-52
2021/06/15 08:33:22;;;;;;;13.63;2.30;;;19.00;61.70;;;;;;5044900;28;20109;-53
2021/06/15 08:35:48;;;;;;;11.68;2.38;;;19.00;59.60;;;;;;5034686;28;20033;-52
2021/06/15 08:38:33;;;;;;;9.23;2.22;;;19.10;57.70;;;;;;5040572;28;20041;-51
2021/06/15 08:41:00;;;;;;;8.30;2.00;;;19.10;58.80;;;;;;5041032;28;20068;-52
2021/06/15 08:43:26;;;;;;;6.57;2.25;;;19.10;58.90;;;;;;5044299;28;20064;-54
2021/06/15 08:45:52;;;;;;;6.70;1.88;;;19.20;57.20;;;;;;5031916;28;20041;-54
2021/06/15 08:48:18;;;;;;;8.10;2.30;;;19.10;57.90;;;;;;5051197;28;20074;-51
2021/06/15 08:50:44;;;;;;;9.95;2.20;;;19.10;57.80;;;;;;5045264;28;20036;-55
2021/06/15 08:53:11;;;;;;;7.03;2.08;;;19.10;59.60;;;;;;5049260;28;20497;-53
2021/06/15 08:55:38;;;;;;;9.23;2.20;;;19.20;58.80;;;;;;5043115;28;20111;-53
2021/06/15 08:58:08;;;;;;;8.98;2.28;;;19.40;59.70;;;;;;5039215;28;20080;-51
2021/06/15 09:00:34;;;;;;;9.18;2.20;;;19.60;59.50;;;;;;5034851;28;20051;-53
2021/06/15 09:03:01;;;;;;;8.23;2.00;;;19.80;57.50;;;;;;5049614;28;20515;-52
2021/06/15 09:05:27;;;;;;;9.52;2.30;;;19.80;56.30;;;;;;5049339;28;20060;-53
2021/06/15 09:07:58;;;;;;;14.38;3.22;;;19.80;56.80;;;;;;5042158;28;20038;-54
2021/06/15 09:10:29;;;;;;;7.78;2.22;;;19.70;56.90;;;;;;5046377;28;20045;-52
2021/06/15 09:12:56;;;;;;;8.32;2.00;;;19.70;55.70;;;;;;5050950;28;20555;-53
2021/06/15 09:15:23;;;;;;;9.90;2.60;;;19.70;56.60;;;;;;5050550;28;20115;-52
2021/06/15 09:17:49;;;;;;;8.13;2.17;;;19.60;57.80;;;;;;5036922;28;20041;-52
2021/06/15 09:20:26;;;;;;;9.60;2.33;;;19.60;58.10;;;;;;5043703;28;20110;-53
2021/06/15 09:23:05;;;;;;;9.32;2.03;;;19.60;58.40;;;;;;5038434;28;20033;-52
2021/06/15 09:25:32;;;;;;;12.77;2.47;;;19.80;58.60;;;;;;5049710;28;20049;-52
2021/06/15 09:28:00;;;;;;;11.52;2.40;;;19.90;58.50;;;;;;5050321;28;20133;-53
2021/06/15 09:30:29;;;;;;;8.57;2.58;;;20.10;55.00;;;;;;5050723;28;20108;-53
2021/06/15 09:32:56;;;;;;;8.02;2.20;;;20.10;54.70;;;;;;5050748;28;20053;-52
2021/06/15 09:35:32;;;;;;;6.03;1.90;;;20.10;54.40;;;;;;5051822;28;20080;-53
2021/06/15 09:38:00;;;;;;;7.32;2.08;;;20.10;54.00;;;;;;5040509;28;20116;-52
2021/06/15 09:40:34;;;;;;;9.25;2.25;;;20.00;55.10;;;;;;5043708;28;20513;-53
2021/06/15 09:43:10;;;;;;;7.88;2.20;;;20.00;56.30;;;;;;5051727;28;20128;-53
2021/06/15 09:45:44;;;;;;;9.30;2.28;;;20.10;57.50;;;;;;5053723;28;20037;-50
2021/06/15 09:48:29;;;;;;;7.10;2.10;;;20.30;57.50;;;;;;5058263;28;20041;-50
2021/06/15 09:51:02;;;;;;;7.43;2.13;;;20.40;57.30;;;;;;5052796;28;20555;-53
2021/06/15 09:53:43;;;;;;;8.15;2.50;;;20.50;56.70;;;;;;5054033;28;20116;-54
2021/06/15 09:56:11;;;;;;;9.77;2.50;;;20.60;56.60;;;;;;5035879;28;20045;-54
2021/06/15 09:58:51;;;;;;;10.57;2.30;;;20.50;56.30;;;;;;5066611;28;20033;-52
2021/06/15 10:01:33;;;;;;;9.70;2.72;;;20.40;55.70;;;;;;5052029;28;20041;-53
2021/06/15 10:04:25;;;;;;;12.27;2.72;;;20.40;56.20;;;;;;5056515;28;20057;-54
2021/06/15 10:06:52;;;;;;;9.70;2.40;;;20.50;56.50;;;;;;5050733;28;20037;-53
2021/06/15 10:09:26;;;;;;;9.63;2.03;;;20.60;54.40;;;;;;5049149;28;20295;-55
2021/06/15 10:11:53;;;;;;;7.05;2.00;;;20.60;55.00;;;;;;5044544;28;20444;-54
2021/06/15 10:14:24;;;;;;;7.53;2.20;;;20.70;54.60;;;;;;5047599;28;20048;-54
2021/06/15 10:16:51;;;;;;;15.95;2.20;;;20.70;54.10;;;;;;5043790;28;20498;-55
2021/06/15 10:19:18;;;;;;;8.90;2.63;;;20.80;54.20;;;;;;5042223;28;20072;-54
2021/06/15 10:21:44;;;;;;;7.05;2.33;;;20.80;54.80;;;;;;5054461;28;20087;-56
2021/06/15 10:24:10;;;;;;;9.45;2.10;;;20.90;54.40;;;;;;5056989;28;20066;-54
2021/06/15 10:26:37;;;;;;;10.57;2.03;;;21.00;54.20;;;;;;5054782;28;20041;-57
2021/06/15 10:29:16;;;;;;;9.25;2.50;;;21.10;52.90;;;;;;5036780;28;20036;-54
2021/06/15 10:31:44;;;;;;;11.38;2.42;;;21.30;52.60;;;;;;5053337;28;20056;-53
2021/06/15 10:34:10;;;;;;;6.97;2.20;;;21.30;50.50;;;;;;5053350;28;20040;-51
2021/06/15 10:36:50;;;;;;;6.68;2.00;;;21.30;51.20;;;;;;5054115;28;20055;-55
2021/06/15 10:39:36;;;;;;;7.88;2.20;;;21.20;51.90;;;;;;5035076;28;20041;-55
2021/06/15 10:42:14;;;;;;;6.82;2.10;;;21.20;51.10;;;;;;5052978;28;20073;-53
2021/06/15 10:44:40;;;;;;;6.75;1.90;;;21.30;50.00;;;;;;5053165;28;20041;-53
2021/06/15 10:47:11;;;;;;;10.38;2.10;;;21.40;48.30;;;;;;5052131;28;20037;-54
2021/06/15 10:49:57;;;;;;;7.07;2.30;;;21.30;49.10;;;;;;5053313;28;20460;-53
2021/06/15 10:52:24;;;;;;;7.43;1.67;;;21.20;49.20;;;;;;5053478;28;20124;-54
2021/06/15 10:54:50;;;;;;;5.10;1.80;;;21.30;48.80;;;;;;5053274;28;20124;-54
2021/06/15 10:57:24;;;;;;;9.43;1.90;;;21.20;49.90;;;;;;5053446;28;20465;-53
2021/06/15 10:59:58;;;;;;;8.90;2.30;;;21.20;49.70;;;;;;5053271;28;20557;-54
2021/06/15 11:02:32;;;;;;;6.82;1.88;;;21.20;49.70;;;;;;5052780;28;20382;-53
2021/06/15 11:05:36;;;;;;;8.60;2.00;;;21.30;50.90;;;;;;5041275;28;20053;-54
2021/06/15 11:08:25;;;;;;;6.75;2.20;;;21.50;47.80;;;;;;5054982;28;20041;-54
2021/06/15 11:10:59;;;;;;;8.30;2.20;;;21.60;48.70;;;;;;5056834;28;20079;-53
2021/06/15 11:13:42;;;;;;;6.60;2.10;;;21.60;49.90;;;;;;5049417;28;20126;-53
2021/06/15 11:16:28;;;;;;;9.50;2.55;;;21.60;48.50;;;;;;5050741;28;20045;-53
2021/06/15 11:19:09;;;;;;;8.35;2.25;;;21.60;47.50;;;;;;5051958;28;20049;-54
2021/06/15 11:21:49;;;;;;;6.40;1.98;;;21.60;47.20;;;;;;5053896;28;20036;-54
2021/06/15 11:24:20;;;;;;;7.22;1.85;;;21.60;49.10;;;;;;5047595;28;20182;-54
2021/06/15 11:27:16;;;;;;;8.05;2.22;;;21.50;48.50;;;;;;5039873;28;20127;-54
2021/06/15 11:29:44;;;;;;;6.60;2.15;;;21.50;48.30;;;;;;5064849;28;20049;-54
2021/06/15 11:32:20;;;;;;;10.00;2.72;;;21.60;49.30;;;;;;5062111;28;20075;-53
2021/06/15 11:35:04;;;;;;;10.65;2.17;;;21.70;49.70;;;;;;5061118;28;20036;-54
2021/06/15 11:37:43;;;;;;;9.77;1.92;;;21.80;48.80;;;;;;5054382;28;20065;-52
2021/06/15 11:40:18;;;;;;;6.40;1.83;;;21.90;46.30;;;;;;5067017;28;20138;-50
2021/06/15 11:42:48;;;;;;;6.20;1.90;;;21.90;47.60;;;;;;5055538;28;20047;-52
2021/06/15 11:45:18;;;;;;;8.52;2.58;;;21.90;48.20;;;;;;5066536;28;20037;-55
2021/06/15 11:47:45;;;;;;;8.38;1.98;;;21.90;49.40;;;;;;5052716;28;20052;-54
2021/06/15 11:50:21;;;;;;;5.57;1.70;;;22.00;49.60;;;;;;5058904;28;20049;-52
2021/06/15 11:52:53;;;;;;;5.97;2.03;;;22.10;47.60;;;;;;5052086;28;20410;-51
2021/06/15 11:55:23;;;;;;;11.07;2.20;;;22.20;46.30;;;;;;5050199;28;20044;-52
2021/06/15 11:57:56;;;;;;;9.07;2.20;;;22.20;45.90;;;;;;5038259;28;20033;-49
2021/06/15 12:00:22;;;;;;;6.05;2.08;;;22.20;45.60;;;;;;5051202;28;20041;-52
2021/06/15 12:02:47;;;;;;;6.50;2.20;;;22.10;46.20;;;;;;5050386;28;20509;-52
2021/06/15 12:05:18;;;;;;;9.18;2.30;;;22.00;47.60;;;;;;5051070;28;20112;-52
2021/06/15 12:07:53;;;;;;;9.48;2.30;;;22.00;46.90;;;;;;5051686;28;20438;-52
2021/06/15 12:10:22;;;;;;;7.55;2.00;;;22.10;48.70;;;;;;5047567;28;20036;-51
2021/06/15 12:13:00;;;;;;;9.55;2.17;;;22.20;48.50;;;;;;5051655;28;20048;-52
2021/06/15 12:15:34;;;;;;;6.25;2.10;;;22.40;46.60;;;;;;5045653;28;20139;-54
2021/06/15 12:18:02;;;;;;;5.85;1.88;;;22.50;45.40;;;;;;5047172;28;20470;-53
2021/06/15 12:20:32;;;;;;;8.15;2.20;;;22.40;45.10;;;;;;5047698;28;20386;-52
2021/06/15 12:22:59;;;;;;;7.43;2.17;;;22.30;45.50;;;;;;5037596;28;20041;-53
2021/06/15 12:25:31;;;;;;;6.40;2.10;;;22.30;45.90;;;;;;5033113;28;20040;-51
2021/06/15 12:28:18;;;;;;;7.88;1.88;;;22.30;47.50;;;;;;5050761;28;20044;-52
2021/06/15 12:30:45;;;;;;;9.18;2.05;;;22.30;47.40;;;;;;5045676;28;20485;-53
2021/06/15 12:33:13;;;;;;;5.85;1.85;;;22.50;48.10;;;;;;5017117;28;20120;-52
2021/06/15 12:35:39;;;;;;;11.40;2.58;;;22.60;48.00;;;;;;5036709;28;20037;-52
2021/06/15 12:38:14;;;;;;;10.52;2.10;;;22.70;48.20;;;;;;5061268;28;20037;-52
2021/06/15 12:40:43;;;;;;;9.38;2.50;;;22.70;46.50;;;;;;5049185;28;20161;-52
2021/06/15 12:43:10;;;;;;;6.63;2.10;;;22.70;45.40;;;;;;5053892;28;20040;-52
2021/06/15 12:45:40;;;;;;;7.32;1.90;;;22.60;46.20;;;;;;5071609;28;20036;-52
2021/06/15 12:48:26;;;;;;;7.30;2.20;;;22.60;45.30;;;;;;5056908;28;20041;-52
2021/06/15 12:51:05;;;;;;;9.20;2.13;;;22.50;46.00;;;;;;5047479;28;20121;-53
2021/06/15 12:53:33;;;;;;;10.05;1.90;;;22.50;47.60;;;;;;5024815;28;20049;-54
2021/06/15 12:55:59;;;;;;;5.63;1.70;;;22.60;47.30;;;;;;5039464;28;20033;-51
2021/06/15 12:58:28;;;;;;;8.02;1.90;;;22.70;46.60;;;;;;5037652;28;20064;-55
2021/06/15 13:00:57;;;;;;;7.22;2.03;;;22.80;46.20;;;;;;5049264;28;20120;-53
2021/06/15 13:03:35;;;;;;;6.97;2.08;;;22.90;46.40;;;;;;5051939;28;20512;-51
2021/06/15 13:06:12;;;;;;;7.70;2.05;;;22.90;46.90;;;;;;5046781;28;20041;-54
2021/06/15 13:08:38;;;;;;;8.00;2.00;;;23.00;45.50;;;;;;5038610;28;20099;-54
2021/06/15 13:11:25;;;;;;;60.42;5.03;;;23.00;45.00;;;;;;5053369;28;20080;-54